X  Chiuso Dati meteorologici dell'aviazione (METAR)        LGTS Thessaloniki Macedonia International
Temperatura
16°C Temperatura
11°C Punto di rugiada
72% Umidità



Vento
2 M/S
5 MPH
7 KM/O
4 KTS



110°
ESE
Condizioni attuali

Partly Cloudy Parzialmente nuvoloso
Pressione 1010 (hPa) - 29.82 (inHg)
Visibilità 6 (miglio) - 10 (km)
Aeroporto
Codice-Aeroporto LGTS

Posizione: Thessaloniki Macedonia International
Distanza: 85 (km)

Metar:
METAR LGTS 261350Z 11004KT 9999 FEW015 SCT030 16/11 Q1010 NOSIG

Ore: 26-02-2024 15:50 EET